METAR Data
IDs: Format: Raw Decoded Include TAF

Data at: 1725 UTC 03 Jun 2020

METAR for:VTUK (Khon Kaen Arpt, --, TH)
Text:VTUK 031700Z 21005KT 9000 NSC 26/24 Q1009 NOSIG
Temperature: 26.0°C ( 79°F)
Dewpoint: 24.0°C ( 75°F) [RH = 89%]
Pressure (altimeter):29.79 inches Hg (1009.0 mb)
Winds:from the SSW (210 degrees) at 6 MPH (5 knots; 2.6 m/s)
Visibility: 6 sm ( 9 km)
Ceiling:at least 12,000 feet AGL
Clouds:sky clear below 12,000 feet AGL
Text:VTUK 031600Z 19004KT 9000 FEW030 SCT100 26/25 Q1010 NOSIG
Temperature: 26.0°C ( 79°F)
Dewpoint: 25.0°C ( 77°F) [RH = 94%]
Pressure (altimeter):29.82 inches Hg (1010.0 mb)
Winds:from the S (190 degrees) at 5 MPH (4 knots; 2.1 m/s)
Visibility: 6 sm ( 9 km)
Ceiling:at least 12,000 feet AGL
Clouds: few clouds at 3000 feet AGL, scattered clouds at 10000 feet AGL
Text:VTUK 031500Z 19005KT 9000 FEW030 BKN100 27/25 Q1009 NOSIG
Temperature: 27.0°C ( 81°F)
Dewpoint: 25.0°C ( 77°F) [RH = 89%]
Pressure (altimeter):29.79 inches Hg (1009.0 mb)
Winds:from the S (190 degrees) at 6 MPH (5 knots; 2.6 m/s)
Visibility: 6 sm ( 9 km)
Ceiling:10000 feet AGL
Clouds: few clouds at 3000 feet AGL, broken clouds at 10000 feet AGL

METAR for:VTUD (Udon Thani Arpt, --, TH)
Text:No data found

METAR for:VTUL (Loei Arpt, --, TH)
Text:No data found

METAR for:VTUI (Sakon Nakhon Arpt, --, TH)
Text:No data found

METAR for:VTUW (Nakhon Phanom Arpt, --, TH)
Text:No data found

METAR for:VTBS (Bangkok/Suvarnabhumi, --, TH)
Text:VTBS 031700Z 07003KT 9000 FEW015 BKN070 26/24 Q1010 NOSIG
Temperature: 26.0°C ( 79°F)
Dewpoint: 24.0°C ( 75°F) [RH = 89%]
Pressure (altimeter):29.82 inches Hg (1010.0 mb)
Winds:from the ENE (70 degrees) at 3 MPH (3 knots; 1.5 m/s)
Visibility: 6 sm ( 9 km)
Ceiling:7000 feet AGL
Clouds: few clouds at 1500 feet AGL, broken clouds at 7000 feet AGL
Text:VTBS 031630Z 11005G15KT 9999 FEW015 BKN050 26/24 Q1010 NOSIG
Temperature: 26.0°C ( 79°F)
Dewpoint: 24.0°C ( 75°F) [RH = 89%]
Pressure (altimeter):29.82 inches Hg (1010.0 mb)
Winds:from the ESE (110 degrees) at 6 MPH (5 knots; 2.6 m/s) gusting to 17 MPH (15 knots; 7.7 m/s)
Visibility:6 or more sm (10+ km)
Ceiling:5000 feet AGL
Clouds: few clouds at 1500 feet AGL, broken clouds at 5000 feet AGL
Text:VTBS 031600Z 13006KT 9999 FEW020 26/24 Q1010 NOSIG
Temperature: 26.0°C ( 79°F)
Dewpoint: 24.0°C ( 75°F) [RH = 89%]
Pressure (altimeter):29.82 inches Hg (1010.0 mb)
Winds:from the SE (130 degrees) at 7 MPH (6 knots; 3.1 m/s)
Visibility:6 or more sm (10+ km)
Ceiling:at least 12,000 feet AGL
Clouds: few clouds at 2000 feet AGL
Text:VTBS 031530Z 11005KT 080V190 9999 FEW020 27/24 Q1009 NOSIG
Temperature: 27.0°C ( 81°F)
Dewpoint: 24.0°C ( 75°F) [RH = 84%]
Pressure (altimeter):29.79 inches Hg (1009.0 mb)
Winds:from the ESE (110 degrees) at 6 MPH (5 knots; 2.6 m/s)
Visibility:6 or more sm (10+ km)
Ceiling:at least 12,000 feet AGL
Clouds: few clouds at 2000 feet AGL
Text:VTBS 031500Z VRB02KT 9999 FEW020 26/23 Q1009 NOSIG
Temperature: 26.0°C ( 79°F)
Dewpoint: 23.0°C ( 73°F) [RH = 84%]
Pressure (altimeter):29.79 inches Hg (1009.0 mb)
Winds:variable direction winds at 2 MPH (2 knots; 1.0 m/s)
Visibility:6 or more sm (10+ km)
Ceiling:at least 12,000 feet AGL
Clouds: few clouds at 2000 feet AGL
Text:VTBS 031430Z 35002KT 9999 FEW020 26/23 Q1009 NOSIG
Temperature: 26.0°C ( 79°F)
Dewpoint: 23.0°C ( 73°F) [RH = 84%]
Pressure (altimeter):29.79 inches Hg (1009.0 mb)
Winds:from the N (350 degrees) at 2 MPH (2 knots; 1.0 m/s)
Visibility:6 or more sm (10+ km)
Ceiling:at least 12,000 feet AGL
Clouds: few clouds at 2000 feet AGL

METAR for:VTBD (Bangkok Intl, --, TH)
Text:VTBD 031700Z 14005KT 9999 FEW020 26/25 Q1010 NOSIG
Temperature: 26.0°C ( 79°F)
Dewpoint: 25.0°C ( 77°F) [RH = 94%]
Pressure (altimeter):29.82 inches Hg (1010.0 mb)
Winds:from the SE (140 degrees) at 6 MPH (5 knots; 2.6 m/s)
Visibility:6 or more sm (10+ km)
Ceiling:at least 12,000 feet AGL
Clouds: few clouds at 2000 feet AGL
Text:VTBD 031630Z 12003KT 9999 FEW020 27/25 Q1010 NOSIG
Temperature: 27.0°C ( 81°F)
Dewpoint: 25.0°C ( 77°F) [RH = 89%]
Pressure (altimeter):29.82 inches Hg (1010.0 mb)
Winds:from the ESE (120 degrees) at 3 MPH (3 knots; 1.5 m/s)
Visibility:6 or more sm (10+ km)
Ceiling:at least 12,000 feet AGL
Clouds: few clouds at 2000 feet AGL
Text:VTBD 031600Z 07003KT 050V110 9999 FEW020 26/25 Q1010 NOSIG
Temperature: 26.0°C ( 79°F)
Dewpoint: 25.0°C ( 77°F) [RH = 94%]
Pressure (altimeter):29.82 inches Hg (1010.0 mb)
Winds:from the ENE (70 degrees) at 3 MPH (3 knots; 1.5 m/s)
Visibility:6 or more sm (10+ km)
Ceiling:at least 12,000 feet AGL
Clouds: few clouds at 2000 feet AGL
Text:VTBD 031530Z 00000KT 9999 FEW020 27/25 Q1009 NOSIG
Temperature: 27.0°C ( 81°F)
Dewpoint: 25.0°C ( 77°F) [RH = 89%]
Pressure (altimeter):29.79 inches Hg (1009.0 mb)
Winds:calm
Visibility:6 or more sm (10+ km)
Ceiling:at least 12,000 feet AGL
Clouds: few clouds at 2000 feet AGL
Text:VTBD 031500Z 00000KT 9999 FEW020 27/25 Q1009 NOSIG
Temperature: 27.0°C ( 81°F)
Dewpoint: 25.0°C ( 77°F) [RH = 89%]
Pressure (altimeter):29.79 inches Hg (1009.0 mb)
Winds:calm
Visibility:6 or more sm (10+ km)
Ceiling:at least 12,000 feet AGL
Clouds: few clouds at 2000 feet AGL
Text:VTBD 031430Z 00000KT 9999 FEW020 26/25 Q1009 NOSIG
Temperature: 26.0°C ( 79°F)
Dewpoint: 25.0°C ( 77°F) [RH = 94%]
Pressure (altimeter):29.79 inches Hg (1009.0 mb)
Winds:calm
Visibility:6 or more sm (10+ km)
Ceiling:at least 12,000 feet AGL
Clouds: few clouds at 2000 feet AGL